Terminal Aerodrome Forecast
Issued by NWS

Home | Current Version | Previous Version | Text Only | Print | Product List | Glossary On
Versions: 1 2 3 4 5 6 7 8 9 10 11 12 13 14 15 16 17 18 19 20 21 22 23 24 25 26 27
694
FTUS43 KEAX 271120
TAFSTJ
TAF
KSTJ 271120Z 2712/2812 14011KT P6SM OVC100
      TEMPO 2712/2714 BKN012
     FM271500 19012KT P6SM OVC080
     FM271700 20013KT P6SM VCTS BKN030CB
     FM272200 25007KT P6SM BKN120=

USA.gov is the U.S. government's official web portal to all federal, state and local government web resources and services.